createdAt,value
2023-05-20T00:00:00.110Z, 3.6
2023-05-20T00:02:00.061Z, 2.2
2023-05-20T00:04:00.166Z, 0
2023-05-20T00:06:00.051Z, 2.2
2023-05-20T00:08:00.062Z, 4.3
2023-05-20T00:10:00.058Z, 1.4
2023-05-20T00:12:00.060Z, 0
2023-05-20T00:14:00.051Z, 0.7
2023-05-20T00:16:00.151Z, 4.3
2023-05-20T00:18:00.091Z, 5
2023-05-20T00:20:00.057Z, 3.6
2023-05-20T00:22:00.044Z, 0
2023-05-20T00:24:00.072Z, 2.2
2023-05-20T00:26:01.039Z, 6.5
2023-05-20T00:28:00.104Z, 5.8
2023-05-20T00:30:00.166Z, 2.2
2023-05-20T00:32:00.158Z, 4.3
2023-05-20T00:34:00.169Z, 0.7
2023-05-20T00:36:00.202Z, 4.3
2023-05-20T00:38:00.147Z, 0.7
2023-05-20T00:40:00.193Z, 0.7
2023-05-20T00:42:00.142Z, 3.6
2023-05-20T00:44:00.141Z, 1.4
2023-05-20T00:46:00.161Z, 0
2023-05-20T00:48:00.169Z, 2.9
2023-05-20T00:50:00.129Z, 0.7
2023-05-20T00:52:00.132Z, 3.6
2023-05-20T00:54:00.133Z, 3.6
2023-05-20T00:56:00.117Z, 1.4
2023-05-20T00:58:00.097Z, 2.9
2023-05-20T01:00:00.159Z, 0.7
2023-05-20T01:02:00.060Z, 0.7
2023-05-20T01:04:00.067Z, 0
2023-05-20T01:06:00.133Z, 0.7
2023-05-20T01:08:00.055Z, 3.6
2023-05-20T01:10:00.066Z, 0
2023-05-20T01:12:00.070Z, 0
2023-05-20T01:14:00.074Z, 1.4
2023-05-20T01:16:00.097Z, 0
2023-05-20T01:18:00.122Z, 5
2023-05-20T01:20:00.111Z, 2.2
2023-05-20T01:22:00.048Z, 0
2023-05-20T01:24:00.054Z, 0.7
2023-05-20T01:26:00.038Z, 2.9
2023-05-20T01:28:00.106Z, 0
2023-05-20T01:30:00.181Z, 0
2023-05-20T01:32:00.124Z, 0.7
2023-05-20T01:34:00.144Z, 2.2
2023-05-20T01:36:00.127Z, 0
2023-05-20T01:38:00.100Z, 4.3
2023-05-20T01:40:00.111Z, 0
2023-05-20T01:42:00.140Z, 0
2023-05-20T01:44:00.133Z, 0
2023-05-20T01:46:00.142Z, 0
2023-05-20T01:48:00.210Z, 0
2023-05-20T01:50:00.183Z, 0.7
2023-05-20T01:52:00.102Z, 7.2
2023-05-20T01:54:00.178Z, 0
2023-05-20T01:56:00.135Z, 3.6
2023-05-20T01:58:00.054Z, 3.6
2023-05-20T02:00:00.068Z, 0.7
2023-05-20T02:02:00.090Z, 0
2023-05-20T02:04:00.042Z, 0
2023-05-20T02:06:00.213Z, 1.4
2023-05-20T02:08:00.057Z, 1.4
2023-05-20T02:10:00.053Z, 0.7
2023-05-20T02:12:00.050Z, 1.4
2023-05-20T02:14:00.098Z, 2.2
2023-05-20T02:16:00.079Z, 0.7
2023-05-20T02:18:00.173Z, 2.2
2023-05-20T02:20:00.047Z, 2.2
2023-05-20T02:22:00.054Z, 2.2
2023-05-20T02:24:00.061Z, 1.4
2023-05-20T02:26:00.051Z, 2.2
2023-05-20T02:28:00.114Z, 7.9
2023-05-20T02:30:00.135Z, 5
2023-05-20T02:32:00.127Z, 5
2023-05-20T02:34:00.178Z, 8.6
2023-05-20T02:36:00.126Z, 2.9
2023-05-20T02:38:00.143Z, 1.4
2023-05-20T02:40:00.157Z, 8.6
2023-05-20T02:42:00.166Z, 10.1
2023-05-20T02:44:00.090Z, 7.9
2023-05-20T02:46:00.133Z, 3.6
2023-05-20T02:48:00.247Z, 5
2023-05-20T02:50:00.143Z, 3.6
2023-05-20T02:52:00.130Z, 1.4
2023-05-20T02:54:00.136Z, 5.8
2023-05-20T02:56:00.137Z, 2.9
2023-05-20T02:58:00.075Z, 7.9
2023-05-20T03:00:00.091Z, 5.8
2023-05-20T03:02:00.328Z, 2.2
2023-05-20T03:04:00.154Z, 2.2
2023-05-20T03:06:00.078Z, 2.2
2023-05-20T03:08:00.061Z, 5
2023-05-20T03:10:00.158Z, 0.7
2023-05-20T03:12:00.075Z, 0.7
2023-05-20T03:14:00.077Z, 0.7
2023-05-20T03:16:00.121Z, 1.4
2023-05-20T03:18:00.102Z, 0
2023-05-20T03:20:00.069Z, 0.7
2023-05-20T03:22:00.055Z, 2.2
2023-05-20T03:24:00.161Z, 0
2023-05-20T03:26:00.069Z, 0.7
2023-05-20T03:28:00.138Z, 1.4
2023-05-20T03:30:00.144Z, 0
2023-05-20T03:32:00.134Z, 0
2023-05-20T03:34:00.119Z, 0
2023-05-20T03:36:00.165Z, 0
2023-05-20T03:38:00.150Z, 2.9
2023-05-20T03:40:00.156Z, 0.7
2023-05-20T03:42:00.208Z, 2.9
2023-05-20T03:44:00.151Z, 1.4
2023-05-20T03:46:00.102Z, 0.7
2023-05-20T03:48:00.198Z, 2.9
2023-05-20T03:50:00.166Z, 0.7
2023-05-20T03:52:00.181Z, 1.4
2023-05-20T03:54:00.140Z, 0
2023-05-20T03:56:00.121Z, 7.9
2023-05-20T03:58:00.062Z, 1.4
2023-05-20T04:00:00.059Z, 0
2023-05-20T04:02:00.130Z, 0.7
2023-05-20T04:04:00.101Z, 0.7
2023-05-20T04:06:00.093Z, 0
2023-05-20T04:08:00.045Z, 0
2023-05-20T04:10:00.054Z, 0.7
2023-05-20T04:12:00.151Z, 0.7
2023-05-20T04:14:00.054Z, 0.7
2023-05-20T04:16:00.042Z, 0
2023-05-20T04:18:00.218Z, 4.3
2023-05-20T04:20:00.258Z, 2.9
2023-05-20T04:22:00.035Z, 2.2
2023-05-20T04:24:00.048Z, 0
2023-05-20T04:26:00.053Z, 0
2023-05-20T04:28:00.131Z, 0
2023-05-20T04:30:00.157Z, 0
2023-05-20T04:32:00.153Z, 0
2023-05-20T04:34:00.097Z, 0
2023-05-20T04:36:00.122Z, 0.7
2023-05-20T04:38:00.117Z, 0
2023-05-20T04:40:00.116Z, 0.7
2023-05-20T04:42:00.154Z, 2.9
2023-05-20T04:44:00.097Z, 2.9
2023-05-20T04:46:00.169Z, 1.4
2023-05-20T04:48:00.167Z, 0
2023-05-20T04:50:00.150Z, 0
2023-05-20T04:52:00.106Z, 0
2023-05-20T04:54:00.145Z, 0
2023-05-20T04:56:00.141Z, 0
2023-05-20T04:58:00.103Z, 5
2023-05-20T05:00:00.073Z, 0.7
2023-05-20T05:02:00.371Z, 4.3
2023-05-20T05:04:00.055Z, 0
2023-05-20T05:06:00.096Z, 0
2023-05-20T05:08:00.059Z, 0
2023-05-20T05:10:00.058Z, 2.2
2023-05-20T05:12:00.068Z, 0
2023-05-20T05:14:00.087Z, 2.9
2023-05-20T05:16:00.173Z, 0.7
2023-05-20T05:18:00.100Z, 3.6
2023-05-20T05:20:00.081Z, 2.9
2023-05-20T05:22:00.043Z, 0.7
2023-05-20T05:24:00.059Z, 2.2
2023-05-20T05:26:00.042Z, 2.2
2023-05-20T05:28:00.118Z, 2.2
2023-05-20T05:30:00.131Z, 2.9
2023-05-20T05:32:00.190Z, 5
2023-05-20T05:34:00.153Z, 4.3
2023-05-20T05:36:00.150Z, 1.4
2023-05-20T05:38:00.115Z, 0.7
2023-05-20T05:40:00.173Z, 2.2
2023-05-20T05:42:00.124Z, 2.9
2023-05-20T05:44:00.153Z, 0.7
2023-05-20T05:46:00.120Z, 1.4
2023-05-20T05:48:00.232Z, 2.9
2023-05-20T05:50:00.357Z, 2.9
2023-05-20T05:52:00.143Z, 3.6
2023-05-20T05:54:00.124Z, 3.6
2023-05-20T05:56:00.188Z, 3.6
2023-05-20T05:58:00.058Z, 2.2
2023-05-20T06:00:00.052Z, 5
2023-05-20T06:02:00.109Z, 5
2023-05-20T06:04:00.192Z, 3.6
2023-05-20T06:06:00.055Z, 7.9
2023-05-20T06:08:00.052Z, 4.3
2023-05-20T06:10:00.084Z, 3.6
2023-05-20T06:12:00.072Z, 7.2
2023-05-20T06:14:00.038Z, 2.9
2023-05-20T06:16:00.058Z, 13.7
2023-05-20T06:18:00.260Z, 13.7
2023-05-20T06:20:00.041Z, 6.5
2023-05-20T06:22:00.043Z, 1.4
2023-05-20T06:24:00.052Z, 2.9
2023-05-20T06:26:00.058Z, 5.8
2023-05-20T06:28:00.210Z, 3.6
2023-05-20T06:30:00.140Z, 4.3
2023-05-20T06:32:00.153Z, 8.6
2023-05-20T06:34:00.188Z, 7.2
2023-05-20T06:36:00.129Z, 0.7
2023-05-20T06:38:00.329Z, 7.9
2023-05-20T06:40:00.165Z, 8.6
2023-05-20T06:42:00.172Z, 12.2
2023-05-20T06:44:00.146Z, 10.1
2023-05-20T06:46:00.177Z, 6.5
2023-05-20T06:48:00.215Z, 2.9
2023-05-20T06:50:00.150Z, 2.9
2023-05-20T06:52:00.136Z, 2.9
2023-05-20T06:54:00.151Z, 5.8
2023-05-20T06:56:00.131Z, 5.8
2023-05-20T06:58:00.057Z, 5.8
2023-05-20T07:00:00.045Z, 5.8
2023-05-20T07:02:00.098Z, 5.8
2023-05-20T07:04:00.084Z, 5.8
2023-05-20T07:06:00.066Z, 5.8
2023-05-20T07:08:00.031Z, 5.8
2023-05-20T07:10:00.053Z, 5.8
2023-05-20T07:12:00.056Z, 5.8
2023-05-20T07:14:00.043Z, 5.8
2023-05-20T07:16:00.083Z, 5.8
2023-05-20T07:18:00.120Z, 5.8
2023-05-20T07:20:00.053Z, 5.8
2023-05-20T07:22:00.049Z, 3.6
2023-05-20T07:24:00.051Z, 2.9
2023-05-20T07:26:00.161Z, 2.9
2023-05-20T07:28:00.140Z, 10.1
2023-05-20T07:30:00.319Z, 10.1
2023-05-20T07:32:00.331Z, 10.1
2023-05-20T07:34:00.133Z, 10.1
2023-05-20T07:36:00.145Z, 8.6
2023-05-20T07:38:00.185Z, 15.1
2023-05-20T07:40:00.126Z, 8.6
2023-05-20T07:42:00.158Z, 13.7
2023-05-20T07:44:00.109Z, 14.4
2023-05-20T07:46:00.162Z, 12.2
2023-05-20T07:48:00.201Z, 5
2023-05-20T07:50:00.156Z, 8.6
2023-05-20T07:52:02.743Z, 7.2
2023-05-20T07:54:00.178Z, 7.2
2023-05-20T07:56:00.158Z, 5.8
2023-05-20T07:58:00.076Z, 10.8
2023-05-20T08:00:00.091Z, 7.9
2023-05-20T08:02:00.140Z, 15.8
2023-05-20T08:04:00.294Z, 10.8
2023-05-20T08:06:00.061Z, 3.6
2023-05-20T08:08:00.060Z, 13
2023-05-20T08:10:00.033Z, 14.4
2023-05-20T08:12:00.018Z, 4.3
2023-05-20T08:14:00.044Z, 10.8
2023-05-20T08:16:00.066Z, 4.3
2023-05-20T08:18:00.175Z, 5.8
2023-05-20T08:20:00.069Z, 5
2023-05-20T08:22:00.049Z, 4.3
2023-05-20T08:24:00.056Z, 10.8
2023-05-20T08:26:00.051Z, 13
2023-05-20T08:28:00.138Z, 13
2023-05-20T08:30:00.918Z, 6.5
2023-05-20T08:32:00.118Z, 15.1
2023-05-20T08:34:00.121Z, 10.8
2023-05-20T08:36:00.148Z, 5
2023-05-20T08:38:00.118Z, 10.8
2023-05-20T08:40:00.112Z, 8.6
2023-05-20T08:42:00.125Z, 13.7
2023-05-20T08:44:00.127Z, 18
2023-05-20T08:46:00.159Z, 5
2023-05-20T08:48:00.206Z, 16.6
2023-05-20T08:50:00.121Z, 2.9
2023-05-20T08:52:00.141Z, 5
2023-05-20T08:54:00.146Z, 18
2023-05-20T08:56:01.514Z, 9.4
2023-05-20T08:58:00.065Z, 13
2023-05-20T09:00:00.061Z, 12.2
2023-05-20T09:02:00.084Z, 3.6
2023-05-20T09:04:00.043Z, 15.8
2023-05-20T09:06:00.077Z, 14.4
2023-05-20T09:08:00.040Z, 2.2
2023-05-20T09:10:00.095Z, 12.2
2023-05-20T09:12:00.078Z, 12.2
2023-05-20T09:14:00.051Z, 13
2023-05-20T09:16:00.185Z, 5
2023-05-20T09:18:00.101Z, 3.6
2023-05-20T09:20:00.095Z, 5.8
2023-05-20T09:22:00.044Z, 5.8
2023-05-20T09:24:00.049Z, 6.5
2023-05-20T09:26:00.043Z, 13.7
2023-05-20T09:28:00.125Z, 9.4
2023-05-20T09:30:00.146Z, 7.9
2023-05-20T09:32:00.134Z, 8.6
2023-05-20T09:34:00.122Z, 14.4
2023-05-20T09:36:00.137Z, 12.2
2023-05-20T09:38:00.107Z, 5.8
2023-05-20T09:40:00.128Z, 13
2023-05-20T09:42:01.444Z, 3.6
2023-05-20T09:44:00.140Z, 9.4
2023-05-20T09:46:00.207Z, 18
2023-05-20T09:48:00.224Z, 15.1
2023-05-20T09:50:00.155Z, 9.4
2023-05-20T09:52:00.127Z, 3.6
2023-05-20T09:54:00.164Z, 15.1
2023-05-20T09:56:00.126Z, 7.9
2023-05-20T09:58:00.121Z, 10.8
2023-05-20T10:00:00.047Z, 5.8
2023-05-20T10:02:00.122Z, 5
2023-05-20T10:04:00.102Z, 9.4
2023-05-20T10:06:00.087Z, 20.2
2023-05-20T10:08:00.058Z, 10.8
2023-05-20T10:10:00.072Z, 4.3
2023-05-20T10:12:00.068Z, 18
2023-05-20T10:14:00.057Z, 6.5
2023-05-20T10:16:00.084Z, 8.6
2023-05-20T10:18:00.128Z, 15.8
2023-05-20T10:20:00.065Z, 4.3
2023-05-20T10:22:00.100Z, 17.3
2023-05-20T10:24:01.598Z, 7.9
2023-05-20T10:26:00.047Z, 6.5
2023-05-20T10:28:00.118Z, 7.2
2023-05-20T10:30:00.151Z, 9.4
2023-05-20T10:32:00.158Z, 8.6
2023-05-20T10:34:00.131Z, 18.7
2023-05-20T10:36:00.199Z, 19.4
2023-05-20T10:38:00.123Z, 9.4
2023-05-20T10:40:00.131Z, 20.9
2023-05-20T10:42:00.243Z, 8.6
2023-05-20T10:44:00.148Z, 9.4
2023-05-20T10:46:00.320Z, 10.1
2023-05-20T10:48:00.256Z, 12.2
2023-05-20T10:50:00.105Z, 5
2023-05-20T10:52:00.130Z, 7.9
2023-05-20T10:54:00.139Z, 3.6
2023-05-20T10:56:00.193Z, 10.8
2023-05-20T10:58:00.104Z, 9.4
2023-05-20T11:00:00.092Z, 7.9
2023-05-20T11:02:00.116Z, 10.1
2023-05-20T11:04:00.187Z, 12.2
2023-05-20T11:06:00.067Z, 5.8
2023-05-20T11:08:00.059Z, 13
2023-05-20T11:10:00.041Z, 13
2023-05-20T11:12:00.088Z, 12.2
2023-05-20T11:14:00.058Z, 15.8
2023-05-20T11:16:00.046Z, 16.6
2023-05-20T11:18:00.125Z, 12.2
2023-05-20T11:20:00.046Z, 5
2023-05-20T11:22:00.060Z, 13.7
2023-05-20T11:24:00.077Z, 18.7
2023-05-20T11:26:00.063Z, 14.4
2023-05-20T11:28:00.123Z, 4.3
2023-05-20T11:30:00.163Z, 10.8
2023-05-20T11:32:00.168Z, 3.6
2023-05-20T11:34:00.137Z, 3.6
2023-05-20T11:36:00.111Z, 10.8
2023-05-20T11:38:00.130Z, 17.3
2023-05-20T11:40:00.178Z, 8.6
2023-05-20T11:42:00.139Z, 16.6
2023-05-20T11:44:00.142Z, 18
2023-05-20T11:46:00.200Z, 5
2023-05-20T11:48:00.187Z, 20.2
2023-05-20T11:50:00.134Z, 23
2023-05-20T11:52:00.113Z, 15.1
2023-05-20T11:54:00.104Z, 18
2023-05-20T11:56:00.159Z, 16.6
2023-05-20T11:58:00.088Z, 17.3
2023-05-20T12:00:00.082Z, 7.2
2023-05-20T12:02:00.064Z, 20.2
2023-05-20T12:04:00.345Z, 20.2
2023-05-20T12:06:00.071Z, 10.8
2023-05-20T12:08:00.056Z, 18
2023-05-20T12:10:00.059Z, 18.7
2023-05-20T12:12:00.085Z, 13
2023-05-20T12:14:00.065Z, 13.7
2023-05-20T12:16:00.103Z, 18
2023-05-20T12:18:00.099Z, 19.4
2023-05-20T12:20:00.056Z, 12.2
2023-05-20T12:22:00.053Z, 13
2023-05-20T12:24:00.055Z, 10.1
2023-05-20T12:26:00.040Z, 18
2023-05-20T12:28:00.115Z, 17.3
2023-05-20T12:30:00.190Z, 5
2023-05-20T12:32:00.180Z, 18.7
2023-05-20T12:34:00.121Z, 10.8
2023-05-20T12:36:00.121Z, 10.1
2023-05-20T12:38:00.144Z, 9.4
2023-05-20T12:40:00.162Z, 18.7
2023-05-20T12:42:00.137Z, 20.9
2023-05-20T12:44:00.122Z, 16.6
2023-05-20T12:46:00.131Z, 15.8
2023-05-20T12:48:00.217Z, 10.1
2023-05-20T12:50:00.177Z, 20.2
2023-05-20T12:52:03.444Z, 19.4
2023-05-20T12:54:00.176Z, 17.3
2023-05-20T12:56:00.198Z, 3.6
2023-05-20T12:58:00.059Z, 18
2023-05-20T13:00:00.056Z, 18
2023-05-20T13:02:00.143Z, 10.8
2023-05-20T13:04:00.011Z, 13
2023-05-20T13:06:00.061Z, 23.8
2023-05-20T13:08:00.042Z, 16.6
2023-05-20T13:10:00.047Z, 7.2
2023-05-20T13:12:00.057Z, 13.7
2023-05-20T13:14:00.062Z, 21.6
2023-05-20T13:16:00.027Z, 13
2023-05-20T13:18:00.127Z, 9.4
2023-05-20T13:20:00.052Z, 18
2023-05-20T13:22:00.053Z, 13
2023-05-20T13:24:00.048Z, 12.2
2023-05-20T13:26:00.045Z, 6.5
2023-05-20T13:28:00.110Z, 13
2023-05-20T13:30:00.240Z, 10.8
2023-05-20T13:32:01.985Z, 14.4
2023-05-20T13:34:00.131Z, 2.9
2023-05-20T13:36:00.128Z, 15.1
2023-05-20T13:38:00.107Z, 5.8
2023-05-20T13:40:00.185Z, 6.5
2023-05-20T13:42:00.171Z, 10.1
2023-05-20T13:44:00.145Z, 6.5
2023-05-20T13:46:00.146Z, 5
2023-05-20T13:48:00.204Z, 15.8
2023-05-20T13:50:02.075Z, 5.8
2023-05-20T13:52:00.129Z, 10.8
2023-05-20T13:54:00.166Z, 14.4
2023-05-20T13:56:00.120Z, 5
2023-05-20T13:58:00.087Z, 17.3
2023-05-20T14:00:00.085Z, 5.8
2023-05-20T14:02:00.225Z, 19.4
2023-05-20T14:04:00.136Z, 18.7
2023-05-20T14:06:00.072Z, 20.2
2023-05-20T14:08:00.128Z, 2.9
2023-05-20T14:10:00.091Z, 18
2023-05-20T14:12:00.052Z, 18
2023-05-20T14:14:00.057Z, 18
2023-05-20T14:16:00.091Z, 18
2023-05-20T14:18:00.151Z, 18
2023-05-20T14:20:00.063Z, 18
2023-05-20T14:22:00.059Z, 16.6
2023-05-20T14:24:00.056Z, 2.2
2023-05-20T14:26:00.035Z, 2.2
2023-05-20T14:28:00.122Z, 2.2
2023-05-20T14:30:00.108Z, 2.2
2023-05-20T14:32:00.178Z, 2.2
2023-05-20T14:34:00.159Z, 13
2023-05-20T14:36:00.136Z, 9.4
2023-05-20T14:38:00.098Z, 9.4
2023-05-20T14:40:00.156Z, 10.1
2023-05-20T14:42:00.140Z, 10.1
2023-05-20T14:44:00.154Z, 10.1
2023-05-20T14:46:00.135Z, 10.1
2023-05-20T14:48:00.128Z, 6.5
2023-05-20T14:50:00.137Z, 12.2
2023-05-20T14:52:00.102Z, 18
2023-05-20T14:54:00.178Z, 15.8
2023-05-20T14:56:00.096Z, 15.8
2023-05-20T14:58:00.096Z, 15.8
2023-05-20T15:00:00.086Z, 28.1
2023-05-20T15:02:00.203Z, 28.1
2023-05-20T15:04:00.082Z, 28.1
2023-05-20T15:06:00.085Z, 28.1
2023-05-20T15:08:00.121Z, 28.1
2023-05-20T15:10:00.065Z, 28.1
2023-05-20T15:12:00.055Z, 28.1
2023-05-20T15:14:00.045Z, 28.1
2023-05-20T15:16:00.064Z, 16.6
2023-05-20T15:18:00.153Z, 16.6
2023-05-20T15:20:00.055Z, 8.6
2023-05-20T15:22:00.070Z, 8.6
2023-05-20T15:24:00.060Z, 7.2
2023-05-20T15:26:00.051Z, 4.3
2023-05-20T15:28:00.114Z, 7.9
2023-05-20T15:30:00.102Z, 10.8
2023-05-20T15:32:00.140Z, 7.9
2023-05-20T15:34:00.247Z, 7.9
2023-05-20T15:36:00.142Z, 7.9
2023-05-20T15:38:00.161Z, 7.9
2023-05-20T15:40:00.152Z, 7.9
2023-05-20T15:42:00.152Z, 7.9
2023-05-20T15:44:00.148Z, 7.9
2023-05-20T15:46:00.188Z, 7.9
2023-05-20T15:48:00.197Z, 7.9
2023-05-20T15:50:00.198Z, 7.9
2023-05-20T15:52:03.768Z, 7.9
2023-05-20T15:54:00.124Z, 7.9
2023-05-20T15:56:00.137Z, 7.9
2023-05-20T15:58:00.125Z, 7.9
2023-05-20T16:00:00.112Z, 7.9
2023-05-20T16:02:00.114Z, 7.9
2023-05-20T16:04:00.217Z, 7.9
2023-05-20T16:06:00.123Z, 7.9
2023-05-20T16:08:00.070Z, 7.9
2023-05-20T16:10:00.165Z, 15.8
2023-05-20T16:12:00.099Z, 18
2023-05-20T16:14:00.102Z, 18
2023-05-20T16:16:00.239Z, 18
2023-05-20T16:18:00.077Z, 18
2023-05-20T16:20:00.182Z, 18
2023-05-20T16:22:00.073Z, 18
2023-05-20T16:24:00.125Z, 18
2023-05-20T16:26:00.058Z, 18
2023-05-20T16:28:00.129Z, 18
2023-05-20T16:30:00.259Z, 13
2023-05-20T16:32:00.262Z, 13
2023-05-20T16:34:00.108Z, 13
2023-05-20T16:36:00.149Z, 13
2023-05-20T16:38:00.148Z, 13
2023-05-20T16:40:00.138Z, 5
2023-05-20T16:42:00.145Z, 5
2023-05-20T16:44:00.162Z, 5
2023-05-20T16:46:00.216Z, 5
2023-05-20T16:48:00.261Z, 5
2023-05-20T16:50:00.161Z, 5
2023-05-20T16:52:00.228Z, 5
2023-05-20T16:54:00.146Z, 5
2023-05-20T16:56:00.127Z, 5
2023-05-20T16:58:00.103Z, 5
2023-05-20T17:00:00.053Z, 5
2023-05-20T17:02:00.066Z, 5
2023-05-20T17:04:00.169Z, 5
2023-05-20T17:06:00.083Z, 5
2023-05-20T17:08:00.161Z, 5
2023-05-20T17:10:00.057Z, 5
2023-05-20T17:12:00.080Z, 5
2023-05-20T17:14:00.064Z, 5
2023-05-20T17:16:00.059Z, 7.2
2023-05-20T17:18:00.063Z, 8.6
2023-05-20T17:20:00.078Z, 4.3
2023-05-20T17:22:00.053Z, 5
2023-05-20T17:24:00.070Z, 2.2
2023-05-20T17:26:00.078Z, 7.9
2023-05-20T17:28:00.116Z, 3.6
2023-05-20T17:30:00.200Z, 10.8
2023-05-20T17:32:00.137Z, 6.5
2023-05-20T17:34:00.172Z, 5
2023-05-20T17:36:00.158Z, 3.6
2023-05-20T17:38:00.158Z, 4.3
2023-05-20T17:40:00.161Z, 5
2023-05-20T17:42:00.152Z, 5
2023-05-20T17:44:00.104Z, 8.6
2023-05-20T17:46:00.181Z, 10.1
2023-05-20T17:48:00.179Z, 9.4
2023-05-20T17:50:00.130Z, 16.6
2023-05-20T17:52:00.155Z, 6.5
2023-05-20T17:54:00.145Z, 10.1
2023-05-20T17:56:00.129Z, 9.4
2023-05-20T17:58:00.078Z, 9.4
2023-05-20T18:00:00.069Z, 3.6
2023-05-20T18:02:00.199Z, 3.6
2023-05-20T18:04:00.145Z, 4.3
2023-05-20T18:06:00.083Z, 4.3
2023-05-20T18:08:00.064Z, 10.8
2023-05-20T18:10:00.054Z, 5
2023-05-20T18:12:00.118Z, 7.9
2023-05-20T18:14:00.056Z, 7.2
2023-05-20T18:16:00.111Z, 2.2
2023-05-20T18:18:00.125Z, 0.7
2023-05-20T18:20:00.092Z, 7.9
2023-05-20T18:22:00.084Z, 2.9
2023-05-20T18:24:00.065Z, 6.5
2023-05-20T18:26:00.049Z, 5.8
2023-05-20T18:28:00.161Z, 0.7
2023-05-20T18:30:00.152Z, 5
2023-05-20T18:32:00.181Z, 7.2
2023-05-20T18:34:00.101Z, 1.4
2023-05-20T18:36:00.141Z, 2.2
2023-05-20T18:38:00.125Z, 7.9
2023-05-20T18:40:00.190Z, 2.2
2023-05-20T18:42:00.136Z, 2.2
2023-05-20T18:44:00.118Z, 3.6
2023-05-20T18:46:00.213Z, 5
2023-05-20T18:48:00.366Z, 10.1
2023-05-20T18:50:00.201Z, 4.3
2023-05-20T18:52:00.129Z, 7.2
2023-05-20T18:54:00.156Z, 1.4
2023-05-20T18:56:00.112Z, 2.2
2023-05-20T18:58:00.073Z, 3.6
2023-05-20T19:00:00.150Z, 5
2023-05-20T19:02:00.117Z, 7.2
2023-05-20T19:04:00.063Z, 7.2
2023-05-20T19:06:00.200Z, 5.8
2023-05-20T19:08:00.076Z, 3.6
2023-05-20T19:10:00.109Z, 3.6
2023-05-20T19:12:00.061Z, 2.9
2023-05-20T19:14:00.071Z, 6.5
2023-05-20T19:16:00.065Z, 8.6
2023-05-20T19:18:00.110Z, 6.5
2023-05-20T19:20:00.071Z, 7.9
2023-05-20T19:22:00.044Z, 3.6
2023-05-20T19:24:00.051Z, 6.5
2023-05-20T19:26:00.063Z, 4.3
2023-05-20T19:28:00.110Z, 6.5
2023-05-20T19:30:00.136Z, 3.6
2023-05-20T19:32:00.114Z, 5.8
2023-05-20T19:34:00.142Z, 7.2
2023-05-20T19:36:00.123Z, 5.8
2023-05-20T19:38:00.156Z, 2.9
2023-05-20T19:40:00.134Z, 4.3
2023-05-20T19:42:00.146Z, 4.3
2023-05-20T19:44:00.110Z, 2.9
2023-05-20T19:46:00.211Z, 7.2
2023-05-20T19:48:00.216Z, 0.7
2023-05-20T19:50:00.155Z, 5.8
2023-05-20T19:52:00.126Z, 2.9
2023-05-20T19:54:00.147Z, 0
2023-05-20T19:56:00.140Z, 3.6
2023-05-20T19:58:00.061Z, 0.7
2023-05-20T20:00:00.177Z, 0.7
2023-05-20T20:02:00.216Z, 3.6
2023-05-20T20:04:00.055Z, 5
2023-05-20T20:06:00.249Z, 5
2023-05-20T20:08:00.068Z, 2.9
2023-05-20T20:10:00.054Z, 0
2023-05-20T20:12:00.092Z, 0.7
2023-05-20T20:14:00.061Z, 0
2023-05-20T20:16:00.114Z, 4.3
2023-05-20T20:18:00.101Z, 5
2023-05-20T20:20:00.057Z, 3.6
2023-05-20T20:22:00.065Z, 5.8
2023-05-20T20:24:00.056Z, 3.6
2023-05-20T20:26:00.081Z, 0
2023-05-20T20:28:00.124Z, 2.9
2023-05-20T20:30:00.183Z, 1.4
2023-05-20T20:32:00.198Z, 5
2023-05-20T20:34:00.146Z, 5.8
2023-05-20T20:36:00.139Z, 5
2023-05-20T20:38:00.204Z, 1.4
2023-05-20T20:40:00.159Z, 2.9
2023-05-20T20:42:00.162Z, 1.4
2023-05-20T20:44:00.120Z, 0
2023-05-20T20:46:00.152Z, 0
2023-05-20T20:48:00.197Z, 0
2023-05-20T20:50:00.144Z, 0
2023-05-20T20:52:00.148Z, 0
2023-05-20T20:54:00.150Z, 2.2
2023-05-20T20:56:00.241Z, 0
2023-05-20T20:58:00.067Z, 0
2023-05-20T21:00:00.079Z, 0
2023-05-20T21:02:00.050Z, 0
2023-05-20T21:04:00.079Z, 2.2
2023-05-20T21:06:00.058Z, 0
2023-05-20T21:08:00.048Z, 3.6
2023-05-20T21:10:00.097Z, 3.6
2023-05-20T21:12:00.070Z, 0
2023-05-20T21:14:00.060Z, 2.2
2023-05-20T21:16:00.059Z, 2.2
2023-05-20T21:18:00.112Z, 2.9
2023-05-20T21:20:00.059Z, 1.4
2023-05-20T21:22:00.054Z, 2.2
2023-05-20T21:24:00.047Z, 2.9
2023-05-20T21:26:00.060Z, 3.6
2023-05-20T21:28:00.114Z, 0.7
2023-05-20T21:30:00.166Z, 2.9
2023-05-20T21:32:00.146Z, 0
2023-05-20T21:34:00.097Z, 0
2023-05-20T21:36:00.183Z, 0.7
2023-05-20T21:38:00.121Z, 0
2023-05-20T21:40:00.126Z, 0
2023-05-20T21:42:00.130Z, 0
2023-05-20T21:44:00.130Z, 4.3
2023-05-20T21:46:00.416Z, 4.3
2023-05-20T21:48:00.230Z, 4.3
2023-05-20T21:50:00.165Z, 0
2023-05-20T21:52:00.135Z, 0
2023-05-20T21:54:00.135Z, 0
2023-05-20T21:56:00.127Z, 0.7
2023-05-20T21:58:00.104Z, 2.2
2023-05-20T22:00:00.155Z, 4.3
2023-05-20T22:02:00.231Z, 0
2023-05-20T22:04:00.257Z, 0
2023-05-20T22:06:00.107Z, 2.9
2023-05-20T22:08:00.053Z, 0
2023-05-20T22:10:00.072Z, 0
2023-05-20T22:12:00.065Z, 0
2023-05-20T22:14:00.036Z, 0
2023-05-20T22:16:00.113Z, 0
2023-05-20T22:18:00.144Z, 1.4
2023-05-20T22:20:00.068Z, 0
2023-05-20T22:22:00.067Z, 0
2023-05-20T22:24:00.065Z, 0
2023-05-20T22:26:00.081Z, 0
2023-05-20T22:28:00.124Z, 0
2023-05-20T22:30:00.145Z, 0
2023-05-20T22:32:00.210Z, 0
2023-05-20T22:34:00.163Z, 0
2023-05-20T22:36:00.136Z, 0
2023-05-20T22:38:00.136Z, 0.7
2023-05-20T22:40:00.104Z, 0
2023-05-20T22:42:00.159Z, 0
2023-05-20T22:44:00.149Z, 0
2023-05-20T22:46:00.190Z, 0
2023-05-20T22:48:00.228Z, 0
2023-05-20T22:50:00.137Z, 0
2023-05-20T22:52:00.157Z, 0
2023-05-20T22:54:00.132Z, 0
2023-05-20T22:56:00.183Z, 0
2023-05-20T22:58:00.081Z, 0
2023-05-20T23:00:00.112Z, 0
2023-05-20T23:02:00.052Z, 0.7
2023-05-20T23:04:00.041Z, 1.4
2023-05-20T23:06:00.071Z, 2.9
2023-05-20T23:08:00.066Z, 5
2023-05-20T23:10:00.039Z, 5
2023-05-20T23:12:00.031Z, 5
2023-05-20T23:14:00.054Z, 5
2023-05-20T23:16:00.070Z, 1.4
2023-05-20T23:18:00.173Z, 3.6
2023-05-20T23:20:00.064Z, 0
2023-05-20T23:22:00.072Z, 0
2023-05-20T23:24:00.082Z, 0
2023-05-20T23:26:00.339Z, 0
2023-05-20T23:28:00.083Z, 0
2023-05-20T23:30:00.130Z, 0
2023-05-20T23:32:00.140Z, 0
2023-05-20T23:34:00.173Z, 0
2023-05-20T23:36:00.134Z, 0
2023-05-20T23:38:00.143Z, 0
2023-05-20T23:40:00.153Z, 0
2023-05-20T23:42:00.156Z, 0
2023-05-20T23:44:00.164Z, 0
2023-05-20T23:46:00.230Z, 0
2023-05-20T23:48:00.239Z, 0
2023-05-20T23:50:00.182Z, 0
2023-05-20T23:52:00.101Z, 0
2023-05-20T23:54:00.166Z, 0
2023-05-20T23:56:00.200Z, 0
2023-05-20T23:58:00.077Z, 0
